Gavrilov-Yam, Russia
Current Conditions -  °F | °C
As of 12:00 AM on Thursday 29 Jan 2015 (Local Time) from UUDL Reporting Station
Overcast Overcast  
Wind Chill: 13°   Ceiling: 1100
Heat Index: 21°   Visibility: 6mi
Dew Point: 18°   Wind: 7mph
Humidity: 86%   Direction: 170°S
Pressure: 29.8"   Gusts: NA
Location:  57.3°N, 39.85°E
Report Text: UUDL 282100Z 17003MPS 9999 BKN011 OVC100 M06/M08 Q1009 NOSIGRMK QFE749 23720450
Loading
Personal Weather Stations






























Interactive Weather Map New forecast layout! Learn more

10-Day Weather Forecast

Advertisements
Track Severe Weather on mobile